Easthampton, MA

4:57 AM EDT on May 23, 2017 (GMT -0400)
New City | | Change Station

Elev 180 ft 42.27 °N, 72.66 °W | Updated 35 seconds ago

Fog
Fog
50.7 °F
Feels Like 50.7 °F
N
0.0
Wind Variable Wind from NE

Today
High -- | Low -- °F
--% Chance of Precip.
Yesterday
High -- | Low -- °F
Precip. -- in
Pressure 29.94 in
Visibility 0.2 miles
Clouds
Dew Point 49 °F
Humidity 93%
Rainfall 0.00 in
Snow Depth Not available.
5:22 AM 8:13 PM
Waning Crescent, 9% visible
METAR KBAF 230853Z AUTO 01003KT 1/4SM R20/1200V1800FT FG VV002 09/09 A2993 RMK AO2 SLP138 T00940094 58003
Pressure 29.94 in
Visibility 0.2 miles
Clouds
Dew Point 49 °F
Humidity 93%
Rainfall 0.00 in
Snow Depth Not available.
5:22 AM 8:13 PM
Waning Crescent, 9% visible
METAR KBAF 230853Z AUTO 01003KT 1/4SM R20/1200V1800FT FG VV002 09/09 A2993 RMK AO2 SLP138 T00940094 58003

Get Severe Weather Alerts

Thanks for signing up!

Be on the lookout for a verification email in your inbox.

You'll start receiving the daily forecast at 6 AM.

×

10-Day Weather Forecast

Almanac

Astronomy

May. 23, 2017 Rise Set
Actual Time
Civil Twilight
Nautical Twilight
Astronomical Twilight
Moon
Length of Visible Light
Length of Day
Tomorrow will be .
, % of the Moon is Illuminated

Today's Extremes

State Highs State Lows

Community

WunderPhotos

Category 6

Welcome to Category 6. This is the collective home for Weather Underground's featured writeups by Dr. Jeff Masters (right), Bob Henson (left), Chris Burt, and other regular contributors.

Nearby

Air Quality

  Air Quality AQ Index Pollutant
Not available.

Snow Depth

Station Depth Elevation

Earthquake Activity

City Distance Mag. Time & Date
Minimum magnitude displayed is 2.5.

Coastal Water Temperatures

Place Temperature

Stations

Nearby Weather Stations

Station Location Temp. Windchill Dew Point Humidity Wind Precip. Elev Updated Type
                   

Watches & Warnings

There are currently no watches in effect.